createdAt,value
2018-12-30T00:02:12.169Z,101078.30
2018-12-30T00:04:38.267Z,101082.34
2018-12-30T00:07:06.248Z,101085.67
2018-12-30T00:09:32.277Z,101092.95
2018-12-30T00:11:58.315Z,101094.35
2018-12-30T00:14:24.331Z,101087.41
2018-12-30T00:16:50.361Z,101090.77
2018-12-30T00:19:16.359Z,101082.67
2018-12-30T00:21:44.355Z,101101.72
2018-12-30T00:24:10.373Z,101095.33
2018-12-30T00:26:36.374Z,101097.02
2018-12-30T00:29:02.448Z,101125.06
2018-12-30T00:31:48.335Z,101097.35
2018-12-30T00:34:14.438Z,101103.47
2018-12-30T00:36:40.425Z,101098.22
2018-12-30T00:39:06.454Z,101122.64
2018-12-30T00:41:32.456Z,101104.13
2018-12-30T00:43:58.485Z,101113.48
2018-12-30T00:46:24.495Z,101097.61
2018-12-30T00:48:50.515Z,101110.05
2018-12-30T00:51:17.284Z,101113.44
2018-12-30T00:53:44.496Z,101117.01
2018-12-30T00:56:10.496Z,101121.13
2018-12-30T00:58:36.520Z,101135.95
2018-12-30T01:01:02.552Z,101124.38
2018-12-30T01:03:28.570Z,101116.56
2018-12-30T01:05:54.606Z,101133.73
2018-12-30T01:11:08.042Z,101125.72
2018-12-30T01:13:34.046Z,101132.23
2018-12-30T01:16:00.102Z,101142.93
2018-12-30T01:18:26.095Z,101148.17
2018-12-30T01:20:52.144Z,101169.29
2018-12-30T01:23:38.118Z,101159.94
2018-12-30T01:26:04.203Z,101170.48
2018-12-30T01:28:30.217Z,101162.17
2018-12-30T01:30:56.308Z,101175.86
2018-12-30T01:33:22.308Z,101171.55
2018-12-30T01:35:48.316Z,101171.95
2018-12-30T01:40:46.330Z,101181.93
2018-12-30T01:43:12.337Z,101181.11
2018-12-30T01:45:38.334Z,101200.59
2018-12-30T01:48:04.356Z,101187.58
2018-12-30T01:50:30.346Z,101183.28
2018-12-30T01:52:56.388Z,101205.19
2018-12-30T01:55:24.323Z,101194.23
2018-12-30T01:57:50.361Z,101189.27
2018-12-30T02:00:16.411Z,101204.19
2018-12-30T02:02:42.417Z,101207.67
2018-12-30T02:05:08.453Z,101218.85
2018-12-30T02:07:34.457Z,101227.51
2018-12-30T02:10:44.035Z,101243.89
2018-12-30T02:13:10.055Z,101248.64
2018-12-30T02:15:36.089Z,101279.46
2018-12-30T02:18:02.066Z,101303.69
2018-12-30T02:20:28.101Z,101286.41
2018-12-30T02:22:54.107Z,101277.63
2018-12-30T02:25:20.153Z,101288.34
2018-12-30T02:27:46.146Z,101319.45
2018-12-30T02:33:05.937Z,101324.93
2018-12-30T02:35:31.951Z,101343.51
2018-12-30T02:40:29.849Z,101348.53
2018-12-30T02:42:55.843Z,101348.31
2018-12-30T02:45:21.888Z,101348.13
2018-12-30T02:47:47.889Z,101354.94
2018-12-30T02:50:13.925Z,101356.38
2018-12-30T02:52:39.966Z,101360.53
2018-12-30T02:55:05.967Z,101377.52
2018-12-30T02:57:32.002Z,101372.10
2018-12-30T02:59:58.041Z,101374.11
2018-12-30T03:02:24.020Z,101379.67
2018-12-30T03:04:50.036Z,101382.43
2018-12-30T03:07:16.046Z,101392.47
2018-12-30T03:09:42.088Z,101389.48
2018-12-30T03:12:21.517Z,101405.38
2018-12-30T03:14:47.595Z,101410.02
2018-12-30T03:17:13.585Z,101408.73
2018-12-30T03:19:39.627Z,101406.27
2018-12-30T03:22:05.657Z,101408.91
2018-12-30T03:24:31.714Z,101416.22
2018-12-30T03:26:57.699Z,101420.86
2018-12-30T03:29:23.726Z,101419.39
2018-12-30T03:31:49.763Z,101436.31
2018-12-30T03:34:15.763Z,101449.71
2018-12-30T03:36:41.807Z,101434.09
2018-12-30T03:39:07.850Z,101444.39
2018-12-30T03:41:33.885Z,101447.59
2018-12-30T03:43:59.888Z,101432.48
2018-12-30T03:46:25.903Z,101457.74
2018-12-30T03:51:37.579Z,101462.34
2018-12-30T03:54:03.579Z,101480.28
2018-12-30T03:56:29.598Z,101491.22
2018-12-30T03:58:55.636Z,101488.98
2018-12-30T04:01:21.644Z,101505.53
2018-12-30T04:03:47.669Z,101498.52
2018-12-30T04:06:33.565Z,101504.15
2018-12-30T04:08:59.681Z,101497.63
2018-12-30T04:11:25.664Z,101503.55
2018-12-30T04:13:51.760Z,101525.20
2018-12-30T04:16:17.746Z,101511.63
2018-12-30T04:18:43.772Z,101527.39
2018-12-30T04:21:09.769Z,101525.22
2018-12-30T04:23:35.802Z,101536.22
2018-12-30T04:26:21.676Z,101535.19
2018-12-30T04:28:47.739Z,101543.66
2018-12-30T04:31:13.810Z,101556.48
2018-12-30T04:33:39.806Z,101562.34
2018-12-30T04:36:05.843Z,101577.21
2018-12-30T04:38:31.866Z,101581.72
2018-12-30T04:40:57.919Z,101575.13
2018-12-30T04:43:23.899Z,101579.31
2018-12-30T04:48:22.036Z,101583.83
2018-12-30T04:50:48.081Z,101598.73
2018-12-30T04:53:14.114Z,101619.64
2018-12-30T04:55:40.152Z,101618.70
2018-12-30T04:58:06.159Z,101630.47
2018-12-30T05:00:32.193Z,101630.09
2018-12-30T05:02:58.220Z,101631.70
2018-12-30T05:05:24.220Z,101634.40
2018-12-30T05:07:50.264Z,101644.34
2018-12-30T05:10:16.262Z,101658.48
2018-12-30T05:12:42.297Z,101662.75
2018-12-30T05:15:08.294Z,101670.56
2018-12-30T05:17:34.309Z,101669.78
2018-12-30T05:20:00.310Z,101671.08
2018-12-30T05:22:33.669Z,101687.79
2018-12-30T05:24:54.285Z,101682.41
2018-12-30T05:27:20.359Z,101688.12
2018-12-30T05:29:46.441Z,101700.33
2018-12-30T05:32:12.445Z,101700.59
2018-12-30T05:34:38.485Z,101711.64
2018-12-30T05:37:04.478Z,101715.02
2018-12-30T05:39:30.507Z,101723.44
2018-12-30T05:41:56.562Z,101728.73
2018-12-30T05:44:22.691Z,101730.41
2018-12-30T05:46:48.693Z,101739.63
2018-12-30T05:49:14.709Z,101743.08
2018-12-30T05:51:40.749Z,101744.39
2018-12-30T05:54:26.646Z,101750.00
2018-12-30T05:56:52.712Z,101747.73
2018-12-30T05:59:18.727Z,101762.95
2018-12-30T06:01:44.752Z,101758.80
2018-12-30T06:04:10.827Z,101774.00
2018-12-30T06:06:36.899Z,101775.84
2018-12-30T06:12:16.711Z,101775.89
2018-12-30T06:14:42.725Z,101776.31
2018-12-30T06:17:08.768Z,101782.44
2018-12-30T06:19:34.765Z,101780.13
2018-12-30T06:22:00.769Z,101793.29
2018-12-30T06:24:26.803Z,101790.15
2018-12-30T06:26:52.806Z,101806.30
2018-12-30T06:29:18.823Z,101799.26
2018-12-30T06:31:44.848Z,101804.51
2018-12-30T06:34:10.905Z,101805.82
2018-12-30T06:39:22.595Z,101822.06
2018-12-30T06:41:48.599Z,101814.62
2018-12-30T06:44:14.596Z,101825.05
2018-12-30T06:46:40.628Z,101837.80
2018-12-30T06:49:06.626Z,101844.86
2018-12-30T06:51:32.644Z,101845.59
2018-12-30T06:53:58.666Z,101844.24
2018-12-30T06:56:24.712Z,101844.54
2018-12-30T06:58:50.698Z,101852.51
2018-12-30T07:01:16.734Z,101852.51
2018-12-30T07:03:42.736Z,101854.26
2018-12-30T07:06:08.817Z,101853.00
2018-12-30T07:08:34.824Z,101847.28
2018-12-30T07:13:54.486Z,101859.60
2018-12-30T07:16:20.478Z,101867.30
2018-12-30T07:21:18.820Z,101869.75
2018-12-30T07:23:44.886Z,101878.88
2018-12-30T07:26:10.886Z,101877.91
2018-12-30T07:28:36.946Z,101877.02
2018-12-30T07:31:02.955Z,101885.72
2018-12-30T07:33:28.962Z,101877.01
2018-12-30T07:35:55.003Z,101889.60
2018-12-30T07:38:21.004Z,101896.20
2018-12-30T07:40:47.054Z,101901.12
2018-12-30T07:43:13.068Z,101902.38
2018-12-30T07:45:39.095Z,101902.33
2018-12-30T07:48:05.091Z,101901.95
2018-12-30T07:50:31.128Z,101901.39
2018-12-30T07:52:57.121Z,101918.11
2018-12-30T07:55:23.142Z,101923.77
2018-12-30T07:57:49.181Z,101923.43
2018-12-30T08:00:15.170Z,101914.22
2018-12-30T08:05:13.753Z,101914.45
2018-12-30T08:07:39.800Z,101919.80
2018-12-30T08:10:05.803Z,101934.64
2018-12-30T08:12:31.900Z,101917.13
2018-12-30T08:14:57.884Z,101920.64
2018-12-30T08:17:23.888Z,101926.34
2018-12-30T08:19:49.918Z,101927.70
2018-12-30T08:22:15.931Z,101924.99
2018-12-30T08:24:41.920Z,101927.70
2018-12-30T08:27:07.941Z,101934.26
2018-12-30T08:29:33.939Z,101934.73
2018-12-30T08:31:59.965Z,101937.30
2018-12-30T08:34:25.953Z,101933.75
2018-12-30T08:36:51.991Z,101943.35
2018-12-30T08:39:18.036Z,101949.48
2018-12-30T08:41:44.045Z,101960.77
2018-12-30T08:44:10.065Z,101955.23
2018-12-30T08:46:36.067Z,101961.28
2018-12-30T08:49:02.112Z,101951.11
2018-12-30T08:51:28.155Z,101957.39
2018-12-30T08:53:54.330Z,101971.73
2018-12-30T08:56:20.379Z,101962.17
2018-12-30T08:58:46.403Z,101976.88
2018-12-30T09:01:12.440Z,101975.61
2018-12-30T09:03:38.904Z,101977.36
2018-12-30T09:06:04.938Z,101974.39
2018-12-30T09:08:30.960Z,101971.30
2018-12-30T09:10:56.998Z,101981.70
2018-12-30T09:13:23.041Z,101996.22
2018-12-30T09:15:49.074Z,101984.38
2018-12-30T09:18:15.080Z,101985.69
2018-12-30T09:20:41.110Z,102004.42
2018-12-30T09:23:07.122Z,102000.91
2018-12-30T09:25:33.175Z,102009.67
2018-12-30T09:27:59.180Z,102007.89
2018-12-30T09:30:25.163Z,102006.95
2018-12-30T09:32:51.246Z,102011.11
2018-12-30T09:35:17.250Z,102008.09
2018-12-30T09:37:43.304Z,101994.77
2018-12-30T09:40:09.305Z,102004.32
2018-12-30T09:42:35.368Z,102004.47
2018-12-30T09:45:01.411Z,102001.70
2018-12-30T09:47:27.409Z,101999.65
2018-12-30T09:49:53.433Z,101992.14
2018-12-30T09:52:19.478Z,101993.98
2018-12-30T09:54:45.531Z,101986.44
2018-12-30T09:57:11.539Z,101997.39
2018-12-30T09:59:37.571Z,101991.61
2018-12-30T10:02:03.572Z,101995.61
2018-12-30T10:04:29.615Z,101989.05
2018-12-30T10:06:55.656Z,101992.98
2018-12-30T10:09:21.703Z,101993.83
2018-12-30T10:11:47.702Z,101988.05
2018-12-30T10:14:13.758Z,101985.83
2018-12-30T10:16:39.767Z,101977.00
2018-12-30T10:19:05.831Z,101991.80
2018-12-30T10:21:51.756Z,101986.67
2018-12-30T10:24:17.849Z,101999.97
2018-12-30T10:26:43.851Z,101986.72
2018-12-30T10:29:09.838Z,101989.09
2018-12-30T10:31:36.266Z,101994.60
2018-12-30T10:34:02.271Z,102000.81
2018-12-30T10:36:28.302Z,101991.20
2018-12-30T10:38:54.296Z,102003.78
2018-12-30T10:41:20.345Z,101991.02
2018-12-30T10:43:46.328Z,102009.27
2018-12-30T10:46:12.349Z,102013.57
2018-12-30T10:48:38.365Z,101999.08
2018-12-30T10:51:04.434Z,101989.71
2018-12-30T10:53:30.397Z,101992.73
2018-12-30T10:55:56.441Z,102022.39
2018-12-30T10:58:22.475Z,101990.84
2018-12-30T11:03:20.533Z,101995.42
2018-12-30T11:05:46.551Z,102001.39
2018-12-30T11:08:12.551Z,101987.86
2018-12-30T11:10:38.570Z,101983.02
2018-12-30T11:13:04.570Z,101988.34
2018-12-30T11:15:30.609Z,101981.63
2018-12-30T11:17:56.622Z,102001.04
2018-12-30T11:20:22.662Z,101996.96
2018-12-30T11:22:48.674Z,101989.87
2018-12-30T11:25:14.700Z,101996.56
2018-12-30T11:27:40.684Z,101990.77
2018-12-30T11:30:48.339Z,102001.16
2018-12-30T11:33:14.416Z,101979.45
2018-12-30T11:35:40.405Z,101975.75
2018-12-30T11:38:06.445Z,101981.34
2018-12-30T11:40:32.451Z,101977.47
2018-12-30T11:42:58.499Z,101970.58
2018-12-30T11:45:24.487Z,101956.55
2018-12-30T11:47:50.535Z,101968.83
2018-12-30T11:50:16.525Z,101960.77
2018-12-30T11:52:42.545Z,101974.83
2018-12-30T11:55:08.591Z,101973.82
2018-12-30T11:57:34.581Z,101969.32
2018-12-30T12:00:00.622Z,101980.11
2018-12-30T12:02:26.658Z,102008.16
2018-12-30T12:04:52.666Z,101986.84
2018-12-30T12:07:18.666Z,101994.30
2018-12-30T12:09:44.704Z,102004.09
2018-12-30T12:12:10.686Z,101999.15
2018-12-30T12:14:36.716Z,101996.69
2018-12-30T12:17:02.705Z,101990.61
2018-12-30T12:19:28.742Z,101997.34
2018-12-30T12:21:54.729Z,102007.67
2018-12-30T12:24:24.540Z,102006.30
2018-12-30T12:26:48.674Z,102010.41
2018-12-30T12:29:14.743Z,102009.75
2018-12-30T12:31:40.767Z,102015.08
2018-12-30T12:34:06.783Z,101999.25
2018-12-30T12:36:32.820Z,101998.42
2018-12-30T12:38:58.840Z,102006.03
2018-12-30T12:41:24.872Z,102005.19
2018-12-30T12:43:50.869Z,102006.44
2018-12-30T12:46:16.899Z,102002.82
2018-12-30T12:48:42.891Z,102001.73
2018-12-30T12:51:08.928Z,102008.61
2018-12-30T12:53:34.959Z,101998.39
2018-12-30T12:56:00.955Z,102005.30
2018-12-30T12:58:26.991Z,102005.39
2018-12-30T13:00:52.969Z,102006.58
2018-12-30T13:03:19.009Z,102006.18
2018-12-30T13:05:45.009Z,102005.91
2018-12-30T13:08:11.048Z,102021.86
2018-12-30T13:13:22.744Z,102013.61
2018-12-30T13:15:48.755Z,102013.80
2018-12-30T13:18:14.754Z,102052.36
2018-12-30T13:20:40.785Z,102026.33
2018-12-30T13:23:06.784Z,102033.05
2018-12-30T13:25:32.837Z,102047.41
2018-12-30T13:27:58.854Z,102044.73
2018-12-30T13:30:24.889Z,102037.55
2018-12-30T13:32:50.920Z,102042.16
2018-12-30T13:35:16.957Z,102047.78
2018-12-30T13:37:42.944Z,102035.84
2018-12-30T13:40:08.978Z,102033.87
2018-12-30T13:42:34.968Z,102039.16
2018-12-30T13:45:01.004Z,102031.09
2018-12-30T13:47:27.100Z,102034.04
2018-12-30T13:49:53.132Z,102025.39
2018-12-30T13:52:19.160Z,102033.45
2018-12-30T13:54:47.903Z,102026.71
2018-12-30T13:57:13.106Z,102037.41
2018-12-30T13:59:39.097Z,102030.75
2018-12-30T14:02:12.765Z,102026.83
2018-12-30T14:04:38.757Z,102045.80
2018-12-30T14:07:04.788Z,102048.06
2018-12-30T14:09:30.792Z,102037.58
2018-12-30T14:11:56.823Z,102020.19
2018-12-30T14:14:22.833Z,102044.20
2018-12-30T14:16:48.877Z,102049.27
2018-12-30T14:19:14.883Z,102042.42
2018-12-30T14:21:40.911Z,102037.25
2018-12-30T14:24:06.952Z,102043.17
2018-12-30T14:26:32.960Z,102043.00
2018-12-30T14:28:58.992Z,102057.13
2018-12-30T14:31:24.998Z,102056.31
2018-12-30T14:33:51.081Z,102046.55
2018-12-30T14:36:17.059Z,102045.77
2018-12-30T14:38:43.102Z,102045.64
2018-12-30T14:41:09.092Z,102053.90
2018-12-30T14:43:35.144Z,102060.66
2018-12-30T14:46:01.174Z,102035.17
2018-12-30T14:48:27.174Z,102037.16
2018-12-30T14:50:53.203Z,102045.37
2018-12-30T14:53:19.583Z,102043.29
2018-12-30T14:55:47.194Z,102024.76
2018-12-30T14:58:13.184Z,102012.54
2018-12-30T15:00:39.222Z,102015.17
2018-12-30T15:03:05.220Z,102025.02
2018-12-30T15:05:31.396Z,102028.39
2018-12-30T15:07:57.424Z,102022.20
2018-12-30T15:10:23.458Z,102041.09
2018-12-30T15:12:49.505Z,102047.57
2018-12-30T15:15:15.557Z,102052.91
2018-12-30T15:20:27.223Z,102071.30
2018-12-30T15:22:53.266Z,102085.70
2018-12-30T15:25:19.268Z,102077.80
2018-12-30T15:27:45.277Z,102079.61
2018-12-30T15:30:11.320Z,102081.27
2018-12-30T15:32:37.358Z,102090.88
2018-12-30T15:38:04.134Z,102086.09
2018-12-30T15:40:30.127Z,102091.36
2018-12-30T15:42:56.154Z,102076.24
2018-12-30T15:45:22.177Z,102093.23
2018-12-30T15:47:48.199Z,102098.53
2018-12-30T15:50:14.242Z,102094.05
2018-12-30T15:52:40.251Z,102088.75
2018-12-30T15:55:06.288Z,102090.40
2018-12-30T15:57:32.291Z,102102.77
2018-12-30T15:59:58.320Z,102101.87
2018-12-30T16:02:24.374Z,102099.73
2018-12-30T16:04:50.347Z,102104.06
2018-12-30T16:09:50.157Z,102099.11
2018-12-30T16:12:16.206Z,102112.38
2018-12-30T16:14:42.228Z,102108.85
2018-12-30T16:17:08.288Z,102086.11
2018-12-30T16:19:34.345Z,102094.89
2018-12-30T16:22:00.737Z,102099.23
2018-12-30T16:24:26.790Z,102106.38
2018-12-30T16:26:52.840Z,102112.52
2018-12-30T16:29:18.846Z,102104.23
2018-12-30T16:31:44.884Z,102106.84
2018-12-30T16:34:10.920Z,102114.72
2018-12-30T16:36:36.953Z,102102.77
2018-12-30T16:39:44.607Z,102110.66
2018-12-30T16:42:10.646Z,102107.30
2018-12-30T16:44:36.650Z,102109.48
2018-12-30T16:47:02.701Z,102107.80
2018-12-30T16:49:28.724Z,102111.21
2018-12-30T16:54:28.511Z,102116.52
2018-12-30T16:56:54.546Z,102124.27
2018-12-30T16:59:20.587Z,102112.39
2018-12-30T17:01:46.588Z,102113.81
2018-12-30T17:04:12.626Z,102114.16
2018-12-30T17:06:38.618Z,102129.59
2018-12-30T17:09:46.279Z,102132.58
2018-12-30T17:12:12.335Z,102146.00
2018-12-30T17:14:38.368Z,102140.86
2018-12-30T17:17:04.408Z,102142.23
2018-12-30T17:19:30.409Z,102147.08
2018-12-30T17:21:56.441Z,102147.61
2018-12-30T17:24:22.437Z,102148.86
2018-12-30T17:26:48.475Z,102154.17
2018-12-30T17:29:14.511Z,102157.59
2018-12-30T17:31:40.506Z,102159.32
2018-12-30T17:34:06.551Z,102168.56
2018-12-30T17:36:32.545Z,102167.62
2018-12-30T17:38:58.595Z,102164.05
2018-12-30T17:41:24.585Z,102165.05
2018-12-30T17:43:50.628Z,102165.15
2018-12-30T17:46:18.456Z,102168.08
2018-12-30T17:48:44.622Z,102160.09
2018-12-30T17:51:10.695Z,102164.92
2018-12-30T17:53:36.709Z,102159.31
2018-12-30T17:56:02.761Z,102162.78
2018-12-30T17:58:28.827Z,102164.94
2018-12-30T18:00:54.830Z,102172.02
2018-12-30T18:03:20.857Z,102183.75
2018-12-30T18:05:46.871Z,102179.32
2018-12-30T18:10:45.428Z,102186.31
2018-12-30T18:13:11.426Z,102192.16
2018-12-30T18:15:37.461Z,102190.66
2018-12-30T18:18:03.465Z,102196.88
2018-12-30T18:20:29.505Z,102198.30
2018-12-30T18:22:55.517Z,102202.98
2018-12-30T18:25:21.557Z,102208.75
2018-12-30T18:27:47.553Z,102201.59
2018-12-30T18:30:13.588Z,102210.86
2018-12-30T18:32:39.606Z,102217.48
2018-12-30T18:35:05.684Z,102215.84
2018-12-30T18:37:31.667Z,102213.22
2018-12-30T18:39:57.705Z,102213.16
2018-12-30T18:42:23.743Z,102210.97
2018-12-30T18:44:49.747Z,102208.82
2018-12-30T18:47:15.777Z,102211.39
2018-12-30T18:49:41.781Z,102215.80
2018-12-30T18:52:07.812Z,102210.54
2018-12-30T18:54:33.813Z,102200.40
2018-12-30T18:56:59.854Z,102206.60
2018-12-30T18:59:25.874Z,102210.59
2018-12-30T19:01:51.910Z,102213.95
2018-12-30T19:04:17.956Z,102209.97
2018-12-30T19:06:43.978Z,102213.08
2018-12-30T19:09:09.994Z,102204.44
2018-12-30T19:11:36.081Z,102212.65
2018-12-30T19:14:02.126Z,102201.83
2018-12-30T19:16:28.111Z,102200.98
2018-12-30T19:18:54.501Z,102205.48
2018-12-30T19:21:20.501Z,102199.25
2018-12-30T19:23:46.541Z,102205.84
2018-12-30T19:26:14.382Z,102201.86
2018-12-30T19:29:00.388Z,102195.67
2018-12-30T19:31:26.415Z,102191.22
2018-12-30T19:33:52.442Z,102187.62
2018-12-30T19:36:18.484Z,102197.36
2018-12-30T19:38:44.542Z,102200.13
2018-12-30T19:41:10.592Z,102202.28
2018-12-30T19:43:36.607Z,102200.92
2018-12-30T19:46:04.036Z,102207.51
2018-12-30T19:48:30.570Z,102204.11
2018-12-30T19:50:56.644Z,102212.87
2018-12-30T19:53:22.635Z,102214.53
2018-12-30T19:55:48.645Z,102214.06
2018-12-30T19:58:14.683Z,102208.81
2018-12-30T20:00:40.692Z,102210.17
2018-12-30T20:03:06.718Z,102210.59
2018-12-30T20:05:32.737Z,102201.41
2018-12-30T20:07:58.795Z,102201.34
2018-12-30T20:10:24.789Z,102211.09
2018-12-30T20:12:50.893Z,102205.48
2018-12-30T20:15:16.893Z,102202.66
2018-12-30T20:17:42.901Z,102210.96
2018-12-30T20:20:08.953Z,102213.17
2018-12-30T20:22:34.950Z,102216.64
2018-12-30T20:25:00.991Z,102213.08
2018-12-30T20:27:26.985Z,102217.95
2018-12-30T20:29:53.019Z,102220.59
2018-12-30T20:32:19.020Z,102202.33
2018-12-30T20:34:45.043Z,102200.98
2018-12-30T20:37:11.071Z,102202.28
2018-12-30T20:39:37.060Z,102192.16
2018-12-30T20:42:03.092Z,102193.47
2018-12-30T20:44:29.126Z,102200.51
2018-12-30T20:46:55.157Z,102193.99
2018-12-30T20:49:21.198Z,102192.25
2018-12-30T20:54:32.923Z,102200.94
2018-12-30T20:56:58.865Z,102206.17
2018-12-30T20:59:24.878Z,102208.82
2018-12-30T21:01:50.928Z,102201.83
2018-12-30T21:04:16.934Z,102209.02
2018-12-30T21:06:42.972Z,102208.50
2018-12-30T21:09:09.183Z,102215.42
2018-12-30T21:11:35.244Z,102213.30
2018-12-30T21:14:01.233Z,102212.38
2018-12-30T21:16:27.269Z,102206.31
2018-12-30T21:18:53.313Z,102201.91
2018-12-30T21:21:19.356Z,102207.16
2018-12-30T21:23:45.360Z,102209.78
2018-12-30T21:26:11.381Z,102208.47
2018-12-30T21:28:37.429Z,102202.72
2018-12-30T21:31:03.421Z,102217.73
2018-12-30T21:33:29.473Z,102202.89
2018-12-30T21:35:55.473Z,102199.86
2018-12-30T21:38:21.507Z,102202.41
2018-12-30T21:40:47.559Z,102194.06
2018-12-30T21:43:13.621Z,102197.58
2018-12-30T21:45:39.622Z,102196.75
2018-12-30T21:48:05.616Z,102208.05
2018-12-30T21:50:31.629Z,102198.97
2018-12-30T21:52:57.665Z,102201.94
2018-12-30T21:57:56.075Z,102201.97
2018-12-30T22:00:22.079Z,102202.86
2018-12-30T22:02:48.136Z,102202.00
2018-12-30T22:05:14.147Z,102207.30
2018-12-30T22:07:40.183Z,102210.24
2018-12-30T22:13:20.062Z,102215.03
2018-12-30T22:15:46.085Z,102206.70
2018-12-30T22:18:12.112Z,102213.30
2018-12-30T22:20:38.123Z,102215.00
2018-12-30T22:23:04.152Z,102212.80
2018-12-30T22:25:30.158Z,102207.20
2018-12-30T22:27:56.200Z,102208.05
2018-12-30T22:30:22.208Z,102209.32
2018-12-30T22:32:48.216Z,102219.37
2018-12-30T22:35:14.258Z,102212.84
2018-12-30T22:37:40.300Z,102225.54
2018-12-30T22:40:47.974Z,102229.48
2018-12-30T22:43:14.739Z,102226.42
2018-12-30T22:45:41.988Z,102227.31
2018-12-30T22:48:07.996Z,102226.00
2018-12-30T22:50:34.050Z,102230.79
2018-12-30T22:53:00.096Z,102225.97
2018-12-30T22:55:26.103Z,102231.19
2018-12-30T22:57:52.149Z,102227.70
2018-12-30T23:00:38.006Z,102227.28
2018-12-30T23:05:36.447Z,102218.09
2018-12-30T23:08:02.483Z,102215.52
2018-12-30T23:10:28.556Z,102214.21
2018-12-30T23:12:54.672Z,102215.07
2018-12-30T23:15:20.675Z,102208.05
2018-12-30T23:17:46.713Z,102210.67
2018-12-30T23:20:12.727Z,102212.38
2018-12-30T23:22:38.787Z,102213.69
2018-12-30T23:25:04.787Z,102201.41
2018-12-30T23:27:30.942Z,102209.28
2018-12-30T23:29:56.978Z,102209.28
2018-12-30T23:32:22.991Z,102211.48
2018-12-30T23:34:49.027Z,102217.16
2018-12-30T23:37:15.024Z,102216.27
2018-12-30T23:39:41.081Z,102216.31
2018-12-30T23:42:07.092Z,102212.87
2018-12-30T23:44:33.141Z,102210.27
2018-12-30T23:46:59.138Z,102207.68
2018-12-30T23:49:25.134Z,102205.45
2018-12-30T23:51:51.180Z,102201.05
2018-12-30T23:54:17.197Z,102194.95
2018-12-30T23:56:43.224Z,102198.47
2018-12-30T23:59:09.226Z,102194.12
